Time;durP1;ratioP1;P1;durP2;ratioP2;P2;SDS_P1;SDS_P2;PMS_P1;PMS_P2;Temp;Humidity;BMP_temperature;BMP_pressure;BME280_temperature;BME280_humidity;BME280_pressure;Samples;Min_cycle;Max_cycle;Signal;HPM_P1;HPM_P2
2023/02/16 00:01:47;;;;;;;73.63;28.92;;;;;;;1.01;73.48;99397.13;4971269;28;20027;-78
2023/02/16 00:04:21;;;;;;;70.20;27.70;;;;;;;0.98;73.21;99403.75;4970902;28;20045;-78
2023/02/16 00:06:48;;;;;;;66.55;28.48;;;;;;;0.97;73.29;99407.50;4971320;28;20026;-77
2023/02/16 00:09:13;;;;;;;62.85;27.20;;;;;;;0.98;73.60;99403.75;4971096;28;20030;-77
2023/02/16 00:14:27;;;;;;;55.55;23.98;;;;;;;0.96;73.75;99405.81;4969577;28;20057;-77
2023/02/16 00:16:55;;;;;;;60.87;25.33;;;;;;;0.96;74.09;99399.59;4969771;28;20027;-77
2023/02/16 00:19:34;;;;;;;53.53;23.02;;;;;;;0.95;73.89;99403.34;4969875;28;20285;-77
2023/02/16 00:22:00;;;;;;;55.70;23.33;;;;;;;0.95;73.64;99403.34;4970788;28;20499;-76
2023/02/16 00:24:28;;;;;;;51.47;22.63;;;;;;;0.94;73.48;99399.81;4970308;28;20026;-76
2023/02/16 00:26:55;;;;;;;51.55;22.75;;;;;;;0.94;73.78;99404.38;4969871;28;20039;-76
2023/02/16 00:29:26;;;;;;;51.08;22.13;;;;;;;0.95;73.75;99397.94;4970996;28;20113;-77
2023/02/16 00:31:53;;;;;;;48.60;22.20;;;;;;;0.94;74.01;99401.69;4970796;28;20114;-76
2023/02/16 00:34:30;;;;;;;50.50;22.77;;;;;;;0.91;73.85;99394.81;4970242;28;20049;-76
2023/02/16 00:36:57;;;;;;;50.85;22.55;;;;;;;0.92;73.37;99391.06;4970332;28;20050;-77
2023/02/16 00:39:24;;;;;;;52.72;22.92;;;;;;;0.94;74.11;99385.47;4970274;28;20022;-77
2023/02/16 00:41:51;;;;;;;49.05;22.50;;;;;;;0.91;73.34;99391.28;4970434;28;20042;-76
2023/02/16 00:44:22;;;;;;;51.95;22.60;;;;;;;0.90;73.82;99379.66;4967876;28;20065;-76
2023/02/16 00:46:47;;;;;;;52.30;22.63;;;;;;;0.88;73.63;99387.97;4969761;28;20026;-77
2023/02/16 00:49:18;;;;;;;52.05;22.00;;;;;;;0.86;73.33;99384.66;4970359;28;20029;-78
2023/02/16 00:51:43;;;;;;;53.20;23.05;;;;;;;0.85;74.14;99383.00;4970133;28;20069;-76
2023/02/16 00:54:08;;;;;;;54.20;23.35;;;;;;;0.83;74.36;99376.97;4970546;28;20026;-77
2023/02/16 00:56:34;;;;;;;52.55;21.67;;;;;;;0.82;73.83;99371.75;4969909;28;20035;-77
2023/02/16 00:59:02;;;;;;;54.05;23.52;;;;;;;0.80;74.12;99377.38;4970491;28;20054;-76
2023/02/16 01:01:31;;;;;;;51.08;20.88;;;;;;;0.79;73.94;99359.53;4970396;28;20027;-77
2023/02/16 01:04:03;;;;;;;51.75;21.80;;;;;;;0.78;73.95;99365.97;4969246;28;20034;-77
2023/02/16 01:12:03;;;;;;;55.78;24.60;;;;;;;0.71;74.28;99346.22;4969559;28;20041;-77
2023/02/16 01:14:30;;;;;;;51.90;22.63;;;;;;;0.69;74.75;99364.50;4968677;28;20428;-77
2023/02/16 01:16:56;;;;;;;44.88;21.10;;;;;;;0.69;74.14;99359.97;4968734;28;20027;-77
2023/02/16 01:19:21;;;;;;;49.33;21.50;;;;;;;0.66;74.72;99368.47;4969844;28;20043;-76
2023/02/16 01:21:47;;;;;;;50.03;22.00;;;;;;;0.63;74.18;99352.69;4969675;28;20077;-76
2023/02/16 01:24:12;;;;;;;46.90;21.13;;;;;;;0.63;74.26;99343.75;4970008;28;20463;-76
2023/02/16 01:26:41;;;;;;;48.28;20.23;;;;;;;0.61;74.89;99345.84;4969742;28;20034;-76
2023/02/16 01:29:11;;;;;;;45.45;20.23;;;;;;;0.58;74.37;99347.06;4967083;28;20023;-76
2023/02/16 01:31:37;;;;;;;40.78;19.10;;;;;;;0.55;74.91;99353.75;4969700;28;20027;-76
2023/02/16 01:34:02;;;;;;;47.97;21.42;;;;;;;0.54;74.74;99353.94;4969858;28;20089;-76
2023/02/16 01:36:33;;;;;;;39.97;17.63;;;;;;;0.50;74.46;99348.13;4968943;28;20031;-77
2023/02/16 01:38:59;;;;;;;47.83;20.27;;;;;;;0.49;75.02;99346.47;4969782;28;20031;-76
2023/02/16 01:41:43;;;;;;;48.08;21.80;;;;;;;0.45;74.57;99358.72;4969740;28;20042;-76
2023/02/16 01:44:16;;;;;;;47.38;21.13;;;;;;;0.44;74.99;99351.66;4969787;28;20517;-76
2023/02/16 01:46:51;;;;;;;46.05;20.17;;;;;;;0.41;75.37;99352.06;4969367;28;20109;-77
2023/02/16 01:49:19;;;;;;;46.63;20.58;;;;;;;0.40;74.99;99347.72;4969794;28;20019;-76
2023/02/16 01:52:11;;;;;;;46.33;20.95;;;;;;;0.39;75.39;99338.81;4969317;28;20041;-76
2023/02/16 01:54:51;;;;;;;47.45;20.73;;;;;;;0.36;74.62;99347.31;4965061;28;20059;-77
2023/02/16 01:57:32;;;;;;;53.35;21.10;;;;;;;0.36;75.23;99351.84;4967395;28;20375;-76
2023/02/16 02:00:02;;;;;;;54.55;23.08;;;;;;;0.34;74.93;99344.00;4968830;28;20043;-77
2023/02/16 02:02:34;;;;;;;48.17;21.23;;;;;;;0.33;75.55;99341.47;4973452;28;20102;-77
2023/02/16 02:08:04;;;;;;;46.03;20.27;;;;;;;0.32;75.82;99339.81;4968228;28;20034;-77
2023/02/16 02:10:51;;;;;;;48.65;21.52;;;;;;;0.31;75.23;99333.59;4968994;28;20113;-77
2023/02/16 02:13:29;;;;;;;46.42;19.77;;;;;;;0.30;75.42;99323.84;4966517;28;20139;-77
2023/02/16 02:15:58;;;;;;;48.22;20.60;;;;;;;0.30;75.47;99326.53;4967457;28;20026;-78
2023/02/16 02:18:24;;;;;;;50.58;21.48;;;;;;;0.29;75.63;99324.88;4968446;28;20026;-77
2023/02/16 02:23:58;;;;;;;46.83;20.48;;;;;;;0.28;75.40;99329.44;4968829;28;20034;-77
2023/02/16 02:27:01;;;;;;;44.85;20.17;;;;;;;0.30;75.23;99334.63;4966943;28;20078;-78
2023/02/16 02:29:45;;;;;;;49.55;22.65;;;;;;;0.29;75.98;99331.09;4968473;28;20043;-78
2023/02/16 02:32:29;;;;;;;53.33;22.98;;;;;;;0.27;75.54;99333.16;4970152;28;20421;-78
2023/02/16 02:34:57;;;;;;;53.92;21.73;;;;;;;0.29;76.11;99324.88;4968377;28;20069;-78
2023/02/16 02:37:25;;;;;;;50.10;21.75;;;;;;;0.29;76.04;99325.69;4969058;28;20031;-77
2023/02/16 02:40:02;;;;;;;53.75;21.75;;;;;;;0.27;75.85;99327.78;4969684;28;20499;-78
2023/02/16 02:42:52;;;;;;;49.45;21.85;;;;;;;0.25;75.66;99323.63;4968650;28;20031;-77
2023/02/16 02:45:23;;;;;;;51.28;22.38;;;;;;;0.26;75.56;99328.81;4972708;28;20492;-77
2023/02/16 02:47:49;;;;;;;52.63;22.50;;;;;;;0.25;76.25;99316.34;4973326;28;20031;-76
2023/02/16 02:53:36;;;;;;;52.10;22.17;;;;;;;0.22;75.25;99318.66;4973538;28;20132;-76
2023/02/16 03:01:41;;;;;;;49.28;22.13;;;;;;;0.21;75.65;99319.69;4973670;28;20049;-77
2023/02/16 03:04:10;;;;;;;49.33;22.25;;;;;;;0.22;75.69;99329.44;4973854;28;20027;-77
2023/02/16 03:06:39;;;;;;;52.45;22.13;;;;;;;0.22;75.72;99329.44;4973501;28;20535;-77
2023/02/16 03:09:10;;;;;;;49.30;21.40;;;;;;;0.20;75.55;99326.13;4973379;28;20026;-77
2023/02/16 03:14:29;;;;;;;49.88;21.23;;;;;;;0.19;76.34;99336.09;4973242;28;20123;-76
2023/02/16 03:30:52;;;;;;;52.72;21.17;;;;;;;0.18;76.40;99328.19;4973402;28;20097;-78
2023/02/16 03:33:18;;;;;;;51.35;21.73;;;;;;;0.17;76.45;99321.13;4973166;28;20126;-78
2023/02/16 03:35:44;;;;;;;54.15;23.10;;;;;;;0.16;76.52;99322.16;4972974;28;20027;-78
2023/02/16 03:38:10;;;;;;;54.22;22.77;;;;;;;0.15;76.06;99315.97;4972163;28;20094;-77
2023/02/16 03:40:39;;;;;;;51.05;21.55;;;;;;;0.13;76.38;99318.84;4972040;28;20035;-77
2023/02/16 03:43:06;;;;;;;49.30;21.37;;;;;;;0.14;76.64;99317.81;4972349;28;20031;-77
2023/02/16 03:45:35;;;;;;;52.92;21.98;;;;;;;0.13;76.44;99326.13;4972374;28;20066;-78
2023/02/16 03:48:01;;;;;;;49.38;22.90;;;;;;;0.12;76.74;99316.38;4972176;28;20039;-78
2023/02/16 03:50:26;;;;;;;49.70;21.30;;;;;;;0.13;76.15;99321.53;4972016;28;20431;-77
2023/02/16 03:53:05;;;;;;;52.58;21.80;;;;;;;0.12;76.67;99310.97;4971394;28;20035;-77
2023/02/16 03:55:51;;;;;;;50.75;20.45;;;;;;;0.12;76.62;99317.19;4971176;28;20035;-77
2023/02/16 03:58:19;;;;;;;55.25;23.20;;;;;;;0.13;76.10;99310.75;4970954;28;20066;-78
2023/02/16 04:00:45;;;;;;;53.42;22.15;;;;;;;0.13;76.14;99315.34;4972114;28;20038;-78
2023/02/16 04:03:10;;;;;;;54.00;22.77;;;;;;;0.13;76.34;99309.94;4971826;28;20412;-77
2023/02/16 04:05:36;;;;;;;52.78;22.10;;;;;;;0.10;76.46;99308.47;4972064;28;20110;-77
2023/02/16 04:08:02;;;;;;;52.15;21.42;;;;;;;0.10;76.39;99304.97;4972002;28;20026;-79
2023/02/16 04:10:28;;;;;;;51.08;22.33;;;;;;;0.09;76.68;99303.28;4972343;28;20027;-77
2023/02/16 04:12:53;;;;;;;54.30;21.98;;;;;;;0.08;76.67;99307.84;4972720;28;20118;-77
2023/02/16 04:15:22;;;;;;;54.22;22.25;;;;;;;0.09;76.67;99312.22;4971745;28;20031;-77
2023/02/16 04:17:47;;;;;;;53.17;22.13;;;;;;;0.08;76.74;99313.25;4971880;28;20089;-77
2023/02/16 04:20:17;;;;;;;51.90;20.55;;;;;;;0.07;76.26;99305.38;4971871;28;20387;-77
2023/02/16 04:22:43;;;;;;;51.08;20.67;;;;;;;0.08;76.70;99312.44;4971877;28;20039;-77
2023/02/16 04:25:09;;;;;;;54.03;21.17;;;;;;;0.07;76.43;99306.19;4975693;28;20443;-78
2023/02/16 04:27:36;;;;;;;55.40;22.67;;;;;;;0.09;76.75;99300.59;4971762;28;20031;-76
2023/02/16 04:30:03;;;;;;;50.67;21.73;;;;;;;0.07;77.08;99299.97;4971798;28;20045;-77
2023/02/16 04:32:28;;;;;;;54.92;21.73;;;;;;;0.07;76.42;99303.50;4971982;28;20089;-78
2023/02/16 04:34:54;;;;;;;55.28;20.42;;;;;;;0.05;77.18;99296.66;4970478;28;20023;-77
2023/02/16 04:37:20;;;;;;;52.90;20.50;;;;;;;0.02;77.17;99295.19;4970236;28;20514;-77
2023/02/16 04:39:45;;;;;;;55.05;22.60;;;;;;;0.04;76.30;99297.69;4971653;28;20109;-78
2023/02/16 04:42:11;;;;;;;54.22;20.83;;;;;;;0.04;77.09;99284.19;4971621;28;20018;-78
2023/02/16 04:44:36;;;;;;;50.15;21.13;;;;;;;0.03;76.70;99286.06;4971256;28;20038;-78
2023/02/16 04:47:01;;;;;;;56.13;22.30;;;;;;;0.03;76.76;99288.75;4971511;28;20514;-78
2023/02/16 04:49:27;;;;;;;60.15;21.38;;;;;;;0.03;76.78;99298.72;4971616;28;20058;-77
2023/02/16 04:51:52;;;;;;;55.53;20.73;;;;;;;0.02;76.85;99287.09;4971134;28;20067;-77
2023/02/16 04:54:17;;;;;;;54.95;20.58;;;;;;;0.02;77.16;99295.19;4971165;28;20051;-77
2023/02/16 04:56:44;;;;;;;60.70;24.05;;;;;;;0.03;77.31;99285.25;4971822;28;20031;-77
2023/02/16 04:59:10;;;;;;;55.25;22.08;;;;;;;0.01;77.54;99284.63;4971380;28;20070;-77
2023/02/16 05:01:35;;;;;;;57.05;21.80;;;;;;;0.01;77.55;99281.91;4971557;28;20071;-77
2023/02/16 05:04:00;;;;;;;52.47;20.67;;;;;;;-0.01;77.13;99287.53;4971085;28;20061;-77
2023/02/16 05:06:26;;;;;;;54.40;21.83;;;;;;;0.01;77.68;99298.09;4970735;28;20539;-77
2023/02/16 05:08:51;;;;;;;58.63;23.67;;;;;;;-0.03;77.65;99285.03;4971398;28;20031;-77
2023/02/16 05:16:45;;;;;;;53.65;21.77;;;;;;;-0.04;77.69;99277.97;4971442;28;20049;-77
2023/02/16 05:19:11;;;;;;;58.40;22.60;;;;;;;-0.04;77.81;99283.38;4971279;28;20109;-77
2023/02/16 05:21:36;;;;;;;53.35;21.58;;;;;;;-0.06;77.82;99273.84;4971047;28;20035;-77
2023/02/16 05:24:08;;;;;;;55.15;21.45;;;;;;;-0.04;77.78;99280.66;4971348;28;20019;-77
2023/02/16 05:26:35;;;;;;;52.05;20.67;;;;;;;-0.04;77.66;99279.84;4970933;28;20026;-76
2023/02/16 05:29:02;;;;;;;57.42;22.30;;;;;;;-0.02;78.09;99291.25;4971221;28;20049;-77
2023/02/16 05:31:28;;;;;;;56.95;22.88;;;;;;;-0.01;78.20;99288.34;4970739;28;20058;-77
2023/02/16 05:33:53;;;;;;;57.38;24.40;;;;;;;-0.02;77.76;99288.56;4969427;28;20046;-76
2023/02/16 05:36:19;;;;;;;57.45;22.33;;;;;;;-0.02;77.84;99286.69;4970439;28;20107;-77
2023/02/16 05:38:45;;;;;;;54.15;21.27;;;;;;;0.02;78.18;99291.66;4970778;28;20382;-77
2023/02/16 05:41:11;;;;;;;56.10;21.95;;;;;;;0.03;78.54;99291.44;4970072;28;20089;-76
2023/02/16 05:43:36;;;;;;;52.83;21.13;;;;;;;0.03;77.93;99296.84;4970553;28;20479;-77
2023/02/16 05:46:07;;;;;;;53.35;21.73;;;;;;;0.01;78.24;99293.53;4970506;28;20070;-75
2023/02/16 05:48:32;;;;;;;57.08;23.17;;;;;;;0.02;78.36;99305.97;4970139;28;20066;-76
2023/02/16 05:50:57;;;;;;;56.72;22.60;;;;;;;0.06;78.05;99314.50;4969503;28;20047;-77
2023/02/16 05:53:23;;;;;;;53.00;21.63;;;;;;;0.05;78.73;99310.13;4970326;28;20094;-77
2023/02/16 05:55:48;;;;;;;52.10;21.63;;;;;;;0.07;78.24;99305.38;4970727;28;20422;-78
2023/02/16 05:58:15;;;;;;;50.67;20.77;;;;;;;0.07;78.16;99299.97;4970455;28;20047;-77
2023/02/16 06:00:40;;;;;;;54.08;21.30;;;;;;;0.08;78.21;99307.84;4970088;28;20534;-76
2023/02/16 06:03:06;;;;;;;52.00;20.63;;;;;;;0.10;78.33;99313.06;4969300;28;20041;-76
2023/02/16 06:05:31;;;;;;;56.97;24.08;;;;;;;0.12;78.21;99311.78;4969876;28;20130;-76
2023/02/16 06:07:57;;;;;;;46.60;20.02;;;;;;;0.14;78.53;99317.00;4971194;28;20391;-77
2023/02/16 06:10:22;;;;;;;53.20;22.23;;;;;;;0.17;78.46;99324.69;4970344;28;20041;-77
2023/02/16 06:12:48;;;;;;;53.50;20.92;;;;;;;0.18;78.64;99329.03;4970557;28;20460;-77
2023/02/16 06:15:13;;;;;;;53.92;20.45;;;;;;;0.22;78.81;99324.06;4937495;28;20027;-76
2023/02/16 06:17:38;;;;;;;56.08;21.27;;;;;;;0.23;78.96;99323.00;4971181;28;20507;-76
2023/02/16 06:20:05;;;;;;;56.00;23.15;;;;;;;0.25;78.88;99319.06;4974213;28;20046;-77
2023/02/16 06:22:30;;;;;;;50.15;20.83;;;;;;;0.29;78.64;99323.00;4974174;28;20038;-77
2023/02/16 06:24:56;;;;;;;55.95;22.75;;;;;;;0.32;78.71;99326.31;4974428;28;20137;-77
2023/02/16 06:27:21;;;;;;;57.33;22.08;;;;;;;0.37;79.11;99331.94;4974014;28;20518;-76
2023/02/16 06:29:47;;;;;;;57.58;21.20;;;;;;;0.39;79.37;99330.69;4972600;28;20023;-77
2023/02/16 06:32:12;;;;;;;62.63;23.33;;;;;;;0.41;78.80;99325.09;4973342;28;20041;-77
2023/02/16 06:34:37;;;;;;;54.63;21.60;;;;;;;0.44;78.69;99330.06;4973023;28;20035;-77
2023/02/16 06:37:03;;;;;;;58.75;22.50;;;;;;;0.45;79.00;99326.34;4973197;28;20043;-78
2023/02/16 06:39:28;;;;;;;56.95;21.92;;;;;;;0.50;78.92;99328.41;4971330;28;20038;-80
2023/02/16 06:41:54;;;;;;;62.58;26.10;;;;;;;0.54;78.75;99324.25;4972510;28;20472;-79
2023/02/16 06:44:19;;;;;;;53.88;21.52;;;;;;;0.57;78.79;99331.91;4972674;28;20271;-78
2023/02/16 06:46:46;;;;;;;55.28;22.05;;;;;;;0.61;79.32;99332.34;4973247;28;20043;-81
2023/02/16 06:49:14;;;;;;;58.28;21.70;;;;;;;0.67;79.45;99335.03;4969716;28;20059;-80
2023/02/16 06:51:39;;;;;;;49.63;21.55;;;;;;;0.70;78.86;99323.81;4971862;28;20091;-81
2023/02/16 06:54:05;;;;;;;58.85;23.52;;;;;;;0.74;79.00;99335.00;4970648;28;20066;-81
2023/02/16 06:56:30;;;;;;;57.20;22.02;;;;;;;0.80;79.05;99342.28;4971551;28;20031;-79
2023/02/16 06:58:55;;;;;;;54.83;21.70;;;;;;;0.82;79.29;99333.94;4971713;28;20038;-80
2023/02/16 07:01:24;;;;;;;56.72;21.92;;;;;;;0.87;79.05;99326.06;4970579;28;20490;-79
2023/02/16 07:03:54;;;;;;;53.08;21.42;;;;;;;0.91;79.30;99326.47;4971899;28;20034;-80
2023/02/16 07:06:20;;;;;;;55.42;23.38;;;;;;;0.93;78.63;99327.91;4969480;28;20392;-78
2023/02/16 07:08:46;;;;;;;57.65;22.98;;;;;;;0.97;78.67;99325.63;4971289;28;20039;-80
2023/02/16 07:11:12;;;;;;;54.05;22.08;;;;;;;1.02;79.06;99345.56;4971754;28;20030;-81
2023/02/16 07:13:37;;;;;;;54.97;21.27;;;;;;;1.08;78.33;99326.84;4970538;28;20062;-84
2023/02/16 07:16:06;;;;;;;54.67;21.77;;;;;;;1.12;78.71;99331.59;4971071;28;20097;-79
2023/02/16 07:18:32;;;;;;;52.45;22.52;;;;;;;1.16;78.39;99340.94;4970906;28;20483;-79
2023/02/16 07:20:58;;;;;;;54.92;21.13;;;;;;;1.22;78.29;99335.72;4971117;28;20034;-79
2023/02/16 07:23:24;;;;;;;55.35;20.90;;;;;;;1.29;78.54;99328.44;4971964;28;20035;-79
2023/02/16 07:25:50;;;;;;;54.35;21.25;;;;;;;1.33;78.21;99335.06;4971910;28;20076;-80
2023/02/16 07:28:15;;;;;;;54.13;22.02;;;;;;;1.38;79.00;99332.56;4970848;28;20432;-78
2023/02/16 07:30:42;;;;;;;49.97;20.77;;;;;;;1.44;78.70;99334.38;4972776;28;20058;-80
2023/02/16 07:33:10;;;;;;;50.33;21.25;;;;;;;1.49;77.99;99322.94;4970958;28;20035;-77
2023/02/16 07:35:36;;;;;;;53.05;22.20;;;;;;;1.49;78.71;99321.06;4970984;28;20051;-78
2023/02/16 07:38:02;;;;;;;53.97;22.05;;;;;;;1.54;78.36;99338.50;4970661;28;20082;-77
2023/02/16 07:40:28;;;;;;;51.88;21.63;;;;;;;1.54;78.16;99325.00;4969118;28;20510;-77
2023/02/16 07:42:53;;;;;;;54.70;20.85;;;;;;;1.58;77.97;99334.31;4971698;28;20114;-77
2023/02/16 07:45:19;;;;;;;51.33;22.10;;;;;;;1.61;77.82;99323.09;4969865;28;20039;-75
2023/02/16 07:47:44;;;;;;;56.72;21.63;;;;;;;1.66;77.63;99328.69;4971069;28;20558;-75
2023/02/16 07:50:10;;;;;;;58.80;22.67;;;;;;;1.72;78.18;99326.97;4969402;28;20035;-74
2023/02/16 07:52:35;;;;;;;58.28;23.30;;;;;;;1.77;78.36;99328.00;4969053;28;20118;-74
2023/02/16 07:55:01;;;;;;;52.40;22.63;;;;;;;1.81;77.46;99314.03;4970413;28;20476;-74
2023/02/16 07:57:27;;;;;;;57.95;21.83;;;;;;;1.84;78.19;99324.41;4971463;28;20089;-76
2023/02/16 07:59:53;;;;;;;53.83;21.33;;;;;;;1.88;77.79;99321.06;4968370;28;20105;-76
2023/02/16 08:02:20;;;;;;;56.80;22.70;;;;;;;1.95;77.33;99320.19;4968813;28;20030;-75
2023/02/16 08:04:47;;;;;;;49.55;20.83;;;;;;;2.01;77.50;99322.03;4971061;28;20026;-76
2023/02/16 08:07:16;;;;;;;53.60;21.42;;;;;;;2.04;77.70;99319.69;4971209;28;20113;-77
2023/02/16 08:09:42;;;;;;;54.73;22.50;;;;;;;2.08;77.22;99326.34;4971238;28;20035;-75
2023/02/16 08:12:09;;;;;;;55.83;20.90;;;;;;;2.13;76.76;99312.13;4971561;28;21467;-76
2023/02/16 08:14:35;;;;;;;58.20;23.65;;;;;;;2.18;77.41;99314.19;4970102;28;20050;-76
2023/02/16 08:17:00;;;;;;;50.90;21.33;;;;;;;2.25;76.97;99309.53;4971438;28;20070;-76
2023/02/16 08:19:28;;;;;;;53.00;22.23;;;;;;;2.28;77.08;99314.50;4971080;28;20510;-79
2023/02/16 08:21:54;;;;;;;53.60;21.45;;;;;;;2.32;76.71;99313.03;4971197;28;20105;-76
2023/02/16 08:24:20;;;;;;;54.80;22.95;;;;;;;2.41;76.81;99318.16;4965563;28;20480;-77
2023/02/16 08:26:48;;;;;;;55.42;23.00;;;;;;;2.48;76.88;99318.94;4967183;28;20023;-74
2023/02/16 08:29:16;;;;;;;54.28;23.08;;;;;;;2.55;76.82;99318.88;4968446;28;20031;-79
2023/02/16 08:31:43;;;;;;;55.80;22.85;;;;;;;2.64;75.92;99328.38;4970293;28;20023;-74
2023/02/16 08:34:08;;;;;;;55.83;22.20;;;;;;;2.66;76.40;99320.88;4971799;28;20035;-75
2023/02/16 08:36:37;;;;;;;54.20;22.85;;;;;;;2.73;75.78;99324.34;4967421;28;20175;-75
2023/02/16 08:39:18;;;;;;;49.25;21.73;;;;;;;2.78;76.33;99318.25;4965552;28;20452;-75
2023/02/16 08:41:46;;;;;;;53.00;23.50;;;;;;;2.86;75.86;99320.66;4966406;28;20023;-76
2023/02/16 08:44:12;;;;;;;55.35;22.25;;;;;;;2.94;75.83;99331.22;4969523;28;20138;-77
2023/02/16 08:46:41;;;;;;;54.60;23.10;;;;;;;3.01;76.10;99325.72;4965913;28;20476;-76
2023/02/16 08:49:08;;;;;;;49.13;22.02;;;;;;;3.08;76.17;99318.34;4966029;28;20421;-77
2023/02/16 08:51:37;;;;;;;54.47;22.38;;;;;;;3.17;75.04;99321.56;4967735;28;20055;-77
2023/02/16 08:54:04;;;;;;;50.22;21.95;;;;;;;3.23;74.72;99330.69;4967797;28;20039;-79
2023/02/16 08:56:30;;;;;;;49.17;21.38;;;;;;;3.28;75.10;99325.41;4967617;28;20023;-75
2023/02/16 08:58:56;;;;;;;46.15;21.10;;;;;;;3.34;74.78;99332.63;4963907;28;20023;-75
2023/02/16 09:01:22;;;;;;;48.90;21.67;;;;;;;3.38;74.09;99333.03;4969487;28;20073;-74
2023/02/16 09:03:48;;;;;;;46.90;21.38;;;;;;;3.42;73.92;99337.75;4968488;28;20022;-76
2023/02/16 09:06:16;;;;;;;45.67;20.88;;;;;;;3.49;73.79;99345.78;4968032;28;20031;-77
2023/02/16 09:08:43;;;;;;;49.53;22.48;;;;;;;3.53;73.66;99335.34;4967578;28;20035;-77
2023/02/16 09:11:14;;;;;;;44.15;20.30;;;;;;;3.57;74.16;99331.13;4966954;28;20026;-77
2023/02/16 09:13:40;;;;;;;46.78;20.80;;;;;;;3.65;74.07;99330.81;4968284;28;20031;-75
2023/02/16 09:16:11;;;;;;;48.47;21.23;;;;;;;3.75;74.42;99337.53;4967947;28;20058;-77
2023/02/16 09:18:38;;;;;;;52.08;22.30;;;;;;;3.80;73.55;99330.38;4968111;28;20023;-77
2023/02/16 09:21:05;;;;;;;47.20;21.25;;;;;;;3.83;73.53;99327.22;4966487;28;20385;-78
2023/02/16 09:23:32;;;;;;;47.92;21.50;;;;;;;3.86;72.31;99329.47;4968588;28;20118;-76
2023/02/16 09:26:00;;;;;;;53.58;22.23;;;;;;;3.91;73.08;99333.34;4968235;28;20037;-78
2023/02/16 09:28:27;;;;;;;43.88;20.60;;;;;;;3.97;73.02;99327.84;4967991;28;20488;-78
2023/02/16 09:30:53;;;;;;;44.45;19.63;;;;;;;4.05;73.28;99340.25;4967317;28;20147;-75
2023/02/16 09:33:19;;;;;;;45.53;20.52;;;;;;;4.12;72.88;99332.84;4968628;28;20063;-75
2023/02/16 09:35:44;;;;;;;44.03;20.00;;;;;;;4.21;72.54;99338.75;4968040;28;20543;-75
2023/02/16 09:38:09;;;;;;;45.42;20.02;;;;;;;4.29;72.81;99341.16;4968221;28;20045;-76
2023/02/16 09:40:36;;;;;;;42.38;19.92;;;;;;;4.37;72.88;99326.38;4969014;28;20470;-76
2023/02/16 09:43:17;;;;;;;45.72;20.88;;;;;;;4.44;72.47;99329.00;4967654;28;20392;-76
2023/02/16 09:45:46;;;;;;;39.40;18.48;;;;;;;4.50;71.15;99332.66;4968382;28;20035;-76
2023/02/16 09:48:30;;;;;;;41.80;19.65;;;;;;;4.50;70.73;99332.66;4968941;28;20034;-77
2023/02/16 09:50:58;;;;;;;40.03;17.85;;;;;;;4.51;70.44;99327.00;4968388;28;20043;-77
2023/02/16 09:53:35;;;;;;;49.75;22.30;;;;;;;4.56;71.11;99334.44;4972568;28;20726;-79
2023/02/16 09:56:14;;;;;;;51.42;22.88;;;;;;;4.62;70.72;99331.63;4972307;28;20110;-80
2023/02/16 09:58:42;;;;;;;53.08;23.08;;;;;;;4.66;70.05;99326.56;4973797;28;20027;-78
2023/02/16 10:01:10;;;;;;;42.83;19.17;;;;;;;4.70;70.41;99324.19;4971899;28;20034;-76
2023/02/16 10:04:10;;;;;;;38.92;17.92;;;;;;;4.76;70.00;99315.09;4973565;28;20027;-79
2023/02/16 10:07:05;;;;;;;44.35;18.65;;;;;;;4.83;70.04;99315.78;4973046;28;20442;-78
2023/02/16 10:09:32;;;;;;;42.05;18.80;;;;;;;4.90;69.86;99308.31;4971872;28;20039;-77
2023/02/16 10:12:20;;;;;;;49.45;24.08;;;;;;;4.94;69.68;99307.84;4973980;28;20022;-75
2023/02/16 10:14:50;;;;;;;43.45;18.63;;;;;;;4.97;69.57;99308.22;4972004;28;20182;-75
2023/02/16 10:17:23;;;;;;;41.22;19.83;;;;;;;5.01;69.52;99303.13;4971003;28;20023;-75
2023/02/16 10:20:13;;;;;;;43.63;19.80;;;;;;;5.06;69.69;99298.63;4973027;28;20039;-75
2023/02/16 10:22:38;;;;;;;;;;;;;;;5.15;69.58;99303.69;4974456;28;20411;-75
2023/02/16 10:25:22;;;;;;;41.83;19.08;;;;;;;5.21;69.16;99300.00;4971113;28;19926;-76
2023/02/16 10:27:56;;;;;;;45.13;20.65;;;;;;;5.28;68.18;99294.44;4971961;28;20439;-74
2023/02/16 10:30:22;;;;;;;49.30;19.88;;;;;;;5.32;68.59;99287.44;4971733;28;20763;-77
2023/02/16 10:33:11;;;;;;;42.03;19.58;;;;;;;5.37;68.07;99290.25;4970715;28;20461;-76
2023/02/16 10:35:49;;;;;;;44.10;19.85;;;;;;;5.40;67.25;99287.06;4971597;28;20032;-75
2023/02/16 10:38:30;;;;;;;44.90;19.85;;;;;;;5.40;67.26;99289.78;4971352;28;20027;-75
2023/02/16 10:41:26;;;;;;;39.85;19.40;;;;;;;5.43;67.45;99291.22;4970819;28;20117;-75
2023/02/16 10:43:57;;;;;;;41.05;18.52;;;;;;;5.47;67.52;99285.03;4973039;28;20074;-76
2023/02/16 10:46:33;;;;;;;45.00;21.05;;;;;;;5.52;67.67;99273.41;4971157;28;20491;-76
2023/02/16 10:49:00;;;;;;;43.88;19.85;;;;;;;5.56;67.04;99274.56;4970797;28;20069;-76
2023/02/16 10:51:32;;;;;;;39.97;18.75;;;;;;;5.59;66.45;99260.47;4970977;28;20047;-79
2023/02/16 10:54:06;;;;;;;45.20;19.77;;;;;;;5.62;66.75;99253.75;4971156;28;20102;-75
2023/02/16 10:56:48;;;;;;;42.35;19.45;;;;;;;5.69;66.45;99256.31;4971496;28;20031;-76
2023/02/16 10:59:20;;;;;;;41.28;19.55;;;;;;;5.74;66.58;99256.41;4973345;28;20027;-75
2023/02/16 11:01:49;;;;;;;43.78;19.52;;;;;;;5.77;66.39;99254.00;4971336;28;20030;-77
2023/02/16 11:04:36;;;;;;;45.60;21.05;;;;;;;5.82;65.99;99247.84;4971115;28;20027;-76
2023/02/16 11:07:05;;;;;;;45.22;21.35;;;;;;;5.85;66.30;99241.91;4972691;28;20031;-78
2023/02/16 11:09:31;;;;;;;43.90;20.88;;;;;;;5.91;66.38;99254.50;4972417;28;20035;-77
2023/02/16 11:11:58;;;;;;;45.53;21.13;;;;;;;5.95;66.48;99241.25;4969198;28;20034;-77
2023/02/16 11:14:29;;;;;;;51.13;21.25;;;;;;;5.97;65.92;99242.63;4969921;28;20074;-79
2023/02/16 11:17:22;;;;;;;44.25;20.58;;;;;;;6.00;67.29;99249.53;4969638;28;20093;-78
2023/02/16 11:19:53;;;;;;;48.08;22.42;;;;;;;6.07;66.54;99246.66;4966828;28;20393;-76
2023/02/16 11:22:36;;;;;;;50.05;23.25;;;;;;;6.08;65.48;99232.78;4967607;28;20176;-78
2023/02/16 11:25:17;;;;;;;48.83;20.90;;;;;;;6.11;65.94;99236.91;4969123;28;20127;-77
2023/02/16 11:27:57;;;;;;;52.08;24.00;;;;;;;6.10;65.27;99225.22;4965917;28;20030;-75
2023/02/16 11:30:35;;;;;;;48.83;22.48;;;;;;;6.11;65.50;99224.09;4968811;28;20043;-80
2023/02/16 11:33:17;;;;;;;47.22;21.05;;;;;;;6.16;66.01;99223.38;4968951;28;20031;-77
2023/02/16 11:35:44;;;;;;;44.42;21.88;;;;;;;6.20;64.82;99229.13;4968982;28;20066;-79
2023/02/16 11:38:26;;;;;;;44.38;21.02;;;;;;;6.17;65.89;99219.59;4970847;28;20041;-81
2023/02/16 11:40:52;;;;;;;44.38;20.83;;;;;;;6.20;65.27;99213.63;4970736;28;20041;-77
2023/02/16 11:43:18;;;;;;;47.92;20.30;;;;;;;6.22;65.45;99216.94;4970394;28;20101;-78
2023/02/16 11:46:01;;;;;;;49.35;22.75;;;;;;;6.25;65.18;99218.31;4969934;28;20102;-75
2023/02/16 11:48:31;;;;;;;46.75;24.38;;;;;;;6.27;65.38;99220.81;4971162;28;20023;-75
2023/02/16 11:51:01;;;;;;;55.17;25.73;;;;;;;6.27;64.84;99223.53;4971190;28;20403;-77
2023/02/16 11:53:31;;;;;;;51.20;23.33;;;;;;;6.27;65.19;99232.53;4971390;28;20054;-78
2023/02/16 11:56:12;;;;;;;;;;;;;;;6.33;65.62;99233.41;4970655;28;20102;-76
2023/02/16 11:58:38;;;;;;;46.47;22.35;;;;;;;6.36;64.99;99222.88;4969952;28;19965;-76
2023/02/16 12:01:41;;;;;;;48.65;23.25;;;;;;;6.37;64.72;99221.78;4969554;28;20061;-76
2023/02/16 12:04:42;;;;;;;54.13;24.98;;;;;;;6.45;65.33;99222.44;4967338;28;20467;-76
2023/02/16 12:07:26;;;;;;;49.60;21.85;;;;;;;6.55;65.51;99217.13;4968392;28;20031;-77
2023/02/16 12:10:19;;;;;;;47.33;22.05;;;;;;;6.62;64.66;99212.31;4967890;28;20113;-78
2023/02/16 12:12:44;;;;;;;49.08;23.38;;;;;;;6.64;64.00;99204.72;4965956;28;20050;-78
2023/02/16 12:15:22;;;;;;;51.47;22.98;;;;;;;6.64;64.98;99201.19;4968768;28;20497;-78
2023/02/16 12:18:25;;;;;;;50.50;22.83;;;;;;;6.67;64.76;99200.69;4968064;28;20030;-76
2023/02/16 12:21:03;;;;;;;49.42;22.75;;;;;;;6.71;64.48;99201.81;4969650;28;20065;-78
2023/02/16 12:23:40;;;;;;;50.95;23.63;;;;;;;6.72;64.79;99199.91;4968864;28;20038;-77